Time;durP1;ratioP1;P1;durP2;ratioP2;P2;SDS_P1;SDS_P2;PMS_P1;PMS_P2;Temp;Humidity;BMP_temperature;BMP_pressure;BME280_temperature;BME280_humidity;BME280_pressure;Samples;Min_cycle;Max_cycle;Signal;HPM_P1;HPM_P2
2023/04/23 00:01:43;;;;;;;6.18;2.92;;;;;;;14.97;95.30;99948.38;4938073;29;20094;-79
2023/04/23 00:04:13;;;;;;;2.83;2.63;;;;;;;14.98;95.46;99937.78;4938485;29;20047;-80
2023/04/23 00:06:42;;;;;;;3.17;2.25;;;;;;;14.99;95.25;99928.97;4939360;29;20094;-80
2023/04/23 00:09:09;;;;;;;2.60;2.40;;;;;;;14.96;95.28;99931.69;4938568;29;20043;-80
2023/04/23 00:11:36;;;;;;;2.35;2.22;;;;;;;14.97;95.33;99927.31;4923262;29;20386;-79
2023/04/23 00:14:03;;;;;;;2.75;2.45;;;;;;;14.98;95.03;99936.91;4922540;29;20423;-80
2023/04/23 00:16:30;;;;;;;3.33;3.03;;;;;;;14.92;96.02;99924.84;4939241;29;20086;-80
2023/04/23 00:18:56;;;;;;;2.90;2.33;;;;;;;14.89;95.85;99923.19;4939206;29;20525;-79
2023/04/23 00:21:23;;;;;;;2.72;2.53;;;;;;;14.86;95.80;99923.31;4922088;29;20477;-79
2023/04/23 00:23:49;;;;;;;3.40;3.10;;;;;;;14.86;96.11;99923.31;4938276;29;20501;-79
2023/04/23 00:26:17;;;;;;;3.38;3.13;;;;;;;14.78;97.03;99925.34;4938847;29;20134;-79
2023/04/23 00:28:43;;;;;;;4.32;3.30;;;;;;;14.78;97.35;99924.50;4938406;29;20126;-79
2023/04/23 00:31:10;;;;;;;3.45;3.15;;;;;;;14.80;96.52;99917.41;4938237;29;20042;-80
2023/04/23 00:33:37;;;;;;;2.95;2.75;;;;;;;14.82;96.28;99913.81;4937991;29;20035;-80
2023/04/23 00:36:04;;;;;;;2.85;2.65;;;;;;;14.78;97.21;99916.59;4938085;29;20046;-79
2023/04/23 00:38:30;;;;;;;3.55;3.05;;;;;;;14.77;97.17;99917.50;4921957;29;20439;-79
2023/04/23 00:40:57;;;;;;;3.30;3.03;;;;;;;14.77;96.63;99915.75;4938029;29;20039;-79
2023/04/23 00:43:23;;;;;;;2.88;2.53;;;;;;;14.77;97.38;99905.22;4937670;29;20467;-80
2023/04/23 00:45:50;;;;;;;3.83;2.90;;;;;;;14.75;97.27;99911.47;4955186;29;20146;-80
2023/04/23 00:48:17;;;;;;;2.60;2.38;;;;;;;14.74;97.86;99909.75;4922469;29;20158;-80
2023/04/23 00:50:43;;;;;;;3.17;2.75;;;;;;;14.72;97.61;99910.66;4938108;29;20449;-80
2023/04/23 00:53:10;;;;;;;3.00;2.80;;;;;;;14.72;97.07;99901.91;4938604;29;20411;-79
2023/04/23 00:55:36;;;;;;;3.25;2.95;;;;;;;14.73;97.57;99908.84;4938017;29;20043;-79
2023/04/23 00:58:03;;;;;;;3.05;2.85;;;;;;;14.72;97.84;99913.28;4937783;29;20035;-80
2023/04/23 01:00:29;;;;;;;5.25;2.63;;;;;;;14.70;97.10;99899.28;4937824;29;20036;-79
2023/04/23 01:02:56;;;;;;;2.15;2.05;;;;;;;14.70;97.11;99904.56;4939191;29;20039;-79
2023/04/23 01:05:23;;;;;;;5.82;2.83;;;;;;;14.68;97.88;99916.09;4922100;29;20141;-79
2023/04/23 01:07:50;;;;;;;5.07;3.22;;;;;;;14.66;97.46;99899.50;4925824;29;20043;-80
2023/04/23 01:10:17;;;;;;;3.05;2.85;;;;;;;14.66;97.51;99905.59;4941443;29;20126;-80
2023/04/23 01:12:43;;;;;;;3.40;3.05;;;;;;;14.61;97.50;99899.63;4941322;29;20047;-80
2023/04/23 01:15:10;;;;;;;2.83;2.55;;;;;;;14.61;98.58;99919.84;4941465;29;20094;-80
2023/04/23 01:17:37;;;;;;;5.30;4.30;;;;;;;14.54;100.00;99919.22;4941173;29;20126;-80
2023/04/23 01:20:05;;;;;;;5.40;4.70;;;;;;;14.33;100.00;99926.13;4940683;29;20367;-80
2023/04/23 01:22:34;;;;;;;6.07;5.57;;;;;;;14.11;100.00;99931.31;4925491;29;20094;-80
2023/04/23 01:25:01;;;;;;;6.45;5.85;;;;;;;13.92;100.00;99931.06;4941661;29;20035;-80
2023/04/23 01:27:28;;;;;;;6.88;5.80;;;;;;;13.82;100.00;99935.78;4941565;29;20047;-80
2023/04/23 01:29:55;;;;;;;6.45;5.80;;;;;;;13.78;100.00;99939.44;4925304;29;20106;-80
2023/04/23 01:32:21;;;;;;;7.57;6.88;;;;;;;13.67;100.00;99937.16;4941333;29;20039;-80
2023/04/23 01:34:49;;;;;;;8.35;7.55;;;;;;;13.61;100.00;99929.47;4941067;29;20050;-80
2023/04/23 01:37:16;;;;;;;8.38;7.57;;;;;;;13.56;100.00;99938.38;4941021;29;20069;-80
2023/04/23 01:39:43;;;;;;;7.00;6.40;;;;;;;13.52;100.00;99938.53;4941244;29;20054;-80
2023/04/23 01:42:09;;;;;;;7.72;7.03;;;;;;;13.43;100.00;99937.06;4925037;29;20550;-79
2023/04/23 01:44:36;;;;;;;9.23;8.25;;;;;;;13.34;100.00;99943.44;4941046;29;20154;-80
2023/04/23 01:47:03;;;;;;;10.05;9.05;;;;;;;13.27;100.00;99944.56;4925030;29;20081;-80
2023/04/23 01:49:30;;;;;;;10.77;8.90;;;;;;;13.22;100.00;99935.97;4941074;29;20085;-80
2023/04/23 01:51:57;;;;;;;11.15;9.10;;;;;;;13.18;100.00;99945.69;4941171;29;20042;-81
2023/04/23 01:54:23;;;;;;;10.20;9.07;;;;;;;13.17;100.00;99941.34;4941064;29;20053;-81
2023/04/23 01:56:53;;;;;;;10.15;8.73;;;;;;;13.14;100.00;99949.34;4941165;29;20066;-80
2023/04/23 01:59:21;;;;;;;11.93;10.70;;;;;;;13.14;100.00;99951.09;4941521;29;20071;-80
2023/04/23 02:01:48;;;;;;;12.95;11.32;;;;;;;13.13;100.00;99949.34;4941283;29;20102;-80
2023/04/23 02:04:16;;;;;;;12.82;10.82;;;;;;;13.13;100.00;99955.50;4941284;29;20442;-80
2023/04/23 02:06:46;;;;;;;14.93;11.23;;;;;;;13.13;100.00;99958.13;4941013;29;20166;-80
2023/04/23 02:09:13;;;;;;;13.23;11.93;;;;;;;13.11;100.00;99956.44;4940426;29;20047;-80
2023/04/23 02:11:40;;;;;;;12.90;11.60;;;;;;;13.07;100.00;99953.91;4924894;29;20043;-80
2023/04/23 02:14:07;;;;;;;14.73;12.35;;;;;;;13.00;100.00;99949.75;4924764;29;20039;-79
2023/04/23 02:16:34;;;;;;;15.85;12.10;;;;;;;12.96;100.00;99963.00;4924703;28;20039;-80
2023/04/23 02:19:01;;;;;;;15.48;12.02;;;;;;;12.88;100.00;99950.09;4940116;29;20043;-80
2023/04/23 02:21:28;;;;;;;16.20;13.45;;;;;;;12.81;100.00;99954.69;4940674;29;20095;-79
2023/04/23 02:23:55;;;;;;;17.67;13.57;;;;;;;12.78;100.00;99953.94;4941107;29;20118;-79
2023/04/23 02:26:23;;;;;;;18.27;13.88;;;;;;;12.73;100.00;99957.53;4941329;29;20046;-80
2023/04/23 02:28:50;;;;;;;19.40;13.88;;;;;;;12.66;100.00;99958.63;4925592;29;20129;-80
2023/04/23 02:31:19;;;;;;;20.30;15.15;;;;;;;12.62;100.00;99964.88;4940876;29;20077;-80
2023/04/23 02:33:46;;;;;;;18.85;14.10;;;;;;;12.57;100.00;99970.25;4940779;29;20046;-79
2023/04/23 02:36:12;;;;;;;17.77;13.98;;;;;;;12.60;100.00;99969.28;4940172;29;20031;-79
2023/04/23 02:38:40;;;;;;;20.60;14.95;;;;;;;12.62;100.00;99972.75;4924160;29;20471;-79
2023/04/23 02:41:06;;;;;;;21.92;15.90;;;;;;;12.58;100.00;99971.13;4940093;29;20047;-79
2023/04/23 02:43:33;;;;;;;22.98;16.05;;;;;;;12.56;100.00;99970.28;4939952;29;20466;-80
2023/04/23 02:46:06;;;;;;;19.90;15.05;;;;;;;12.47;100.00;99968.78;4939844;29;20050;-79
2023/04/23 02:48:41;;;;;;;21.98;16.52;;;;;;;12.42;100.00;99975.91;4940940;29;20050;-79
2023/04/23 02:51:11;;;;;;;22.27;16.73;;;;;;;12.36;100.00;99976.09;4940023;29;20039;-79
2023/04/23 02:53:37;;;;;;;21.35;16.88;;;;;;;12.32;100.00;99975.31;4958116;29;20053;-79
2023/04/23 02:56:04;;;;;;;21.15;16.25;;;;;;;12.24;100.00;99975.53;4940304;29;20035;-79
2023/04/23 02:58:31;;;;;;;22.95;16.10;;;;;;;12.21;100.00;99972.97;4940102;29;20044;-79
2023/04/23 03:00:59;;;;;;;23.00;17.40;;;;;;;12.18;100.00;99978.31;4940117;29;20051;-80
2023/04/23 03:03:30;;;;;;;22.38;17.23;;;;;;;12.13;100.00;99964.44;4923589;29;20043;-79
2023/04/23 03:05:58;;;;;;;22.85;17.13;;;;;;;12.14;100.00;99976.66;4924174;29;20368;-79
2023/04/23 03:08:24;;;;;;;25.02;17.98;;;;;;;12.11;100.00;99965.38;4939752;29;20094;-79
2023/04/23 03:10:51;;;;;;;25.05;18.77;;;;;;;12.08;100.00;99967.22;4939973;29;20035;-79
2023/04/23 03:13:17;;;;;;;23.17;16.83;;;;;;;12.12;100.00;99967.97;4939725;29;20043;-80
2023/04/23 03:15:44;;;;;;;25.58;18.63;;;;;;;12.14;100.00;99974.03;4939714;29;20039;-80
2023/04/23 03:18:10;;;;;;;26.50;18.25;;;;;;;12.12;100.00;99975.84;4939740;29;20044;-79
2023/04/23 03:20:37;;;;;;;26.17;18.85;;;;;;;12.09;100.00;99983.78;4923312;29;20104;-79
2023/04/23 03:23:05;;;;;;;25.27;18.05;;;;;;;12.03;100.00;99976.97;4939818;29;20474;-80
2023/04/23 03:25:33;;;;;;;24.20;17.33;;;;;;;12.05;100.00;99980.38;4923467;29;20146;-80
2023/04/23 03:27:59;;;;;;;28.25;18.75;;;;;;;12.04;100.00;99983.06;4939172;29;20471;-80
2023/04/23 03:30:27;;;;;;;23.70;18.02;;;;;;;12.04;100.00;99978.66;4939178;29;20482;-79
2023/04/23 03:32:56;;;;;;;22.48;17.65;;;;;;;12.06;100.00;99976.88;4939000;29;20040;-79
2023/04/23 03:35:24;;;;;;;24.52;18.33;;;;;;;12.07;100.00;99980.34;4938672;29;20047;-80
2023/04/23 03:37:51;;;;;;;27.90;19.00;;;;;;;12.02;100.00;99984.84;4938881;29;20379;-79
2023/04/23 03:40:17;;;;;;;26.00;19.02;;;;;;;11.97;100.00;99978.84;4922820;29;20050;-80
2023/04/23 03:42:44;;;;;;;26.40;20.02;;;;;;;11.92;100.00;99985.03;4938810;29;20043;-80
2023/04/23 03:45:12;;;;;;;24.77;18.42;;;;;;;11.92;100.00;99992.91;4938705;29;20376;-79
2023/04/23 03:47:39;;;;;;;25.65;19.10;;;;;;;11.94;100.00;99987.63;4922752;29;20386;-79
2023/04/23 03:50:08;;;;;;;26.23;19.77;;;;;;;11.94;100.00;99990.25;4939248;29;20039;-79
2023/04/23 03:52:35;;;;;;;27.95;20.05;;;;;;;11.92;100.00;99987.66;4939000;29;20039;-80
2023/04/23 03:55:02;;;;;;;22.63;18.17;;;;;;;11.92;100.00;99994.69;4938963;29;20051;-79
2023/04/23 03:57:29;;;;;;;32.20;19.50;;;;;;;11.90;100.00;99993.84;4938717;29;20039;-79
2023/04/23 03:59:55;;;;;;;26.23;20.75;;;;;;;11.83;100.00;99993.16;4938746;29;20079;-79
2023/04/23 04:02:22;;;;;;;27.90;19.50;;;;;;;11.84;100.00;100009.75;4938472;29;20041;-80
2023/04/23 04:04:50;;;;;;;30.20;20.60;;;;;;;11.82;100.00;100011.56;4955652;29;20039;-80
2023/04/23 04:07:17;;;;;;;30.52;21.33;;;;;;;11.84;100.00;100008.00;4939559;29;20043;-80
2023/04/23 04:09:45;;;;;;;32.22;22.83;;;;;;;11.83;100.00;100008.03;4942075;29;20071;-79
2023/04/23 04:12:12;;;;;;;29.63;21.55;;;;;;;11.80;100.00;100010.72;4959511;29;20134;-80
2023/04/23 04:14:39;;;;;;;29.63;22.17;;;;;;;11.76;100.00;100007.31;4943678;29;20073;-79
2023/04/23 04:17:05;;;;;;;32.10;23.08;;;;;;;11.68;100.00;100017.13;4961477;29;20039;-79
2023/04/23 04:19:31;;;;;;;31.83;21.92;;;;;;;11.59;100.00;100012.97;4942219;29;20121;-79
2023/04/23 04:21:58;;;;;;;34.97;22.80;;;;;;;11.54;100.00;100027.94;4938659;29;20055;-79
2023/04/23 04:24:31;;;;;;;35.38;23.48;;;;;;;11.50;100.00;100018.41;4938749;29;20134;-78
2023/04/23 04:26:59;;;;;;;33.38;22.00;;;;;;;11.53;100.00;100027.06;4943376;29;20071;-79
2023/04/23 04:29:26;;;;;;;29.55;20.88;;;;;;;11.54;100.00;100026.16;4939755;29;20095;-79
2023/04/23 04:31:56;;;;;;;36.15;23.48;;;;;;;11.50;100.00;100024.53;4939219;29;20458;-80
2023/04/23 04:34:23;;;;;;;32.03;21.05;;;;;;;11.45;100.00;100031.63;4935778;29;20197;-79
2023/04/23 04:36:50;;;;;;;35.15;22.95;;;;;;;11.40;100.00;100031.72;4935098;29;20055;-79
2023/04/23 04:39:17;;;;;;;32.15;22.55;;;;;;;11.36;100.00;100034.47;4936833;29;20510;-79
2023/04/23 04:41:44;;;;;;;33.88;21.50;;;;;;;11.34;100.00;100038.84;4943560;29;20472;-81
2023/04/23 04:44:10;;;;;;;31.25;22.35;;;;;;;11.32;100.00;100043.28;4942658;29;20067;-80
2023/04/23 04:46:39;;;;;;;31.85;22.02;;;;;;;11.25;100.00;100051.28;4940923;29;20048;-80
2023/04/23 04:49:12;;;;;;;34.50;23.13;;;;;;;11.12;100.00;100039.34;4940800;29;20386;-79
2023/04/23 04:51:40;;;;;;;33.17;22.95;;;;;;;11.11;100.00;100045.47;4925165;29;20048;-80
2023/04/23 04:54:07;;;;;;;32.80;23.02;;;;;;;11.08;100.00;100048.13;4941463;29;20043;-79
2023/04/23 04:56:34;;;;;;;29.88;20.05;;;;;;;11.08;100.00;100045.50;4925472;29;20044;-79
2023/04/23 04:59:01;;;;;;;29.95;20.92;;;;;;;11.12;100.00;100059.41;4941152;29;20042;-79
2023/04/23 05:01:28;;;;;;;32.50;23.10;;;;;;;11.09;100.00;100057.72;4941861;29;20047;-79
2023/04/23 05:03:56;;;;;;;35.40;23.55;;;;;;;11.07;100.00;100059.53;4942727;29;20118;-80
2023/04/23 05:06:23;;;;;;;33.75;22.25;;;;;;;11.00;100.00;100058.78;4941371;29;20036;-80
2023/04/23 05:08:49;;;;;;;38.17;24.02;;;;;;;10.98;100.00;100068.41;4941425;29;20095;-80
2023/04/23 05:11:18;;;;;;;35.45;22.98;;;;;;;10.91;100.00;100064.19;4941636;29;20051;-80
2023/04/23 05:13:45;;;;;;;31.05;22.08;;;;;;;10.87;100.00;100070.38;4926608;29;20102;-80
2023/04/23 05:16:12;;;;;;;34.05;22.88;;;;;;;10.86;100.00;100061.69;4942287;29;20455;-80
2023/04/23 05:18:39;;;;;;;33.03;22.33;;;;;;;10.84;100.00;100067.84;4942963;29;20138;-80
2023/04/23 05:21:06;;;;;;;35.35;22.52;;;;;;;10.84;100.00;100067.84;4943152;29;20058;-80
2023/04/23 05:23:35;;;;;;;33.40;21.90;;;;;;;10.79;100.00;100064.44;4942774;29;20060;-79
2023/04/23 05:26:02;;;;;;;39.22;23.95;;;;;;;10.79;100.00;100062.69;4943269;29;20075;-80
2023/04/23 05:28:30;;;;;;;32.80;21.63;;;;;;;10.77;100.00;100054.00;4950985;29;20044;-80
2023/04/23 05:30:57;;;;;;;35.83;23.17;;;;;;;10.80;100.00;100066.19;4962471;28;20120;-79
2023/04/23 05:33:24;;;;;;;34.80;22.48;;;;;;;10.82;100.00;100059.13;4963715;29;20040;-79
2023/04/23 05:35:51;;;;;;;29.65;20.08;;;;;;;10.84;100.00;100060.84;4963541;29;20072;-80
2023/04/23 05:38:17;;;;;;;32.35;23.00;;;;;;;10.88;100.00;100062.50;4947432;29;20062;-79
2023/04/23 05:40:44;;;;;;;32.50;21.88;;;;;;;10.92;100.00;100061.56;4962680;29;20100;-79
2023/04/23 05:43:12;;;;;;;35.60;22.58;;;;;;;10.94;100.00;100064.16;4929775;29;20043;-80
2023/04/23 05:45:38;;;;;;;33.92;23.05;;;;;;;11.02;100.00;100072.69;4962967;28;20063;-79
2023/04/23 05:48:05;;;;;;;36.05;22.00;;;;;;;11.05;100.00;100074.41;4963496;29;20139;-80
2023/04/23 05:50:31;;;;;;;33.08;22.42;;;;;;;11.04;100.00;100077.91;4947073;28;20035;-79
2023/04/23 05:52:58;;;;;;;31.23;21.00;;;;;;;11.00;100.00;100087.59;4975365;28;20047;-80
2023/04/23 05:55:25;;;;;;;34.63;22.45;;;;;;;10.96;100.00;100085.91;4943722;29;20044;-79
2023/04/23 05:57:52;;;;;;;35.17;24.10;;;;;;;10.91;100.00;100091.25;4943603;29;20391;-80
2023/04/23 06:00:19;;;;;;;34.63;21.75;;;;;;;10.82;100.00;100093.16;4943504;29;20048;-79
2023/04/23 06:02:47;;;;;;;34.38;24.83;;;;;;;10.78;100.00;100099.38;4959499;28;20036;-79
2023/04/23 06:05:14;;;;;;;35.30;21.83;;;;;;;10.74;100.00;100094.19;4959540;29;20039;-79
2023/04/23 06:07:41;;;;;;;33.70;22.70;;;;;;;10.79;100.00;100088.00;4959350;29;20039;-80
2023/04/23 06:10:08;;;;;;;35.03;23.30;;;;;;;10.79;100.00;100093.25;4959739;29;20072;-79
2023/04/23 06:12:37;;;;;;;31.38;22.38;;;;;;;10.77;100.00;100090.66;4959862;29;20047;-80
2023/04/23 06:15:08;;;;;;;32.88;21.77;;;;;;;10.83;100.00;100084.44;4955329;29;20043;-79
2023/04/23 06:17:37;;;;;;;32.50;22.50;;;;;;;10.88;100.00;100086.06;4958207;29;20067;-81
2023/04/23 06:20:04;;;;;;;38.45;23.48;;;;;;;10.92;100.00;100089.50;4997027;23;20056;-80
2023/04/23 06:22:31;;;;;;;30.20;20.05;;;;;;;10.95;100.00;100083.31;4952532;29;20051;-80
2023/04/23 06:24:57;;;;;;;33.70;22.42;;;;;;;11.03;100.00;100084.03;4965920;29;20410;-81
2023/04/23 06:27:25;;;;;;;33.17;22.20;;;;;;;10.92;100.00;100079.91;4943795;29;20043;-80
2023/04/23 06:29:53;;;;;;;34.30;23.35;;;;;;;10.95;100.00;100080.72;4956033;29;20044;-79
2023/04/23 06:32:20;;;;;;;33.90;22.63;;;;;;;10.96;100.00;100080.66;4925830;29;20391;-78
2023/04/23 06:34:46;;;;;;;33.70;24.10;;;;;;;10.96;100.00;100090.28;4956606;29;20043;-79
2023/04/23 06:37:13;;;;;;;31.10;22.73;;;;;;;11.00;100.00;100082.38;4956113;29;20043;-79
2023/04/23 06:39:39;;;;;;;31.75;22.65;;;;;;;11.08;100.00;100083.06;4955671;29;20098;-79
2023/04/23 06:42:06;;;;;;;35.13;23.55;;;;;;;11.14;100.00;100079.44;4955894;29;20043;-79
2023/04/23 06:44:33;;;;;;;33.20;22.38;;;;;;;11.26;100.00;100086.19;4926602;29;20052;-78
2023/04/23 06:46:59;;;;;;;29.52;21.65;;;;;;;11.40;100.00;100078.03;4955178;29;20039;-79
2023/04/23 06:49:26;;;;;;;31.05;21.00;;;;;;;11.56;100.00;100074.19;4955028;29;20051;-80
2023/04/23 06:51:52;;;;;;;31.20;21.63;;;;;;;11.66;100.00;100079.22;4955401;29;20043;-78
2023/04/23 06:54:19;;;;;;;30.60;19.92;;;;;;;11.81;99.81;100078.00;4938693;29;20063;-79
2023/04/23 06:56:45;;;;;;;32.80;22.52;;;;;;;11.76;98.82;100072.88;4938419;29;20058;-79
2023/04/23 06:59:12;;;;;;;32.53;23.38;;;;;;;11.86;97.64;100073.50;4937634;29;20040;-79
2023/04/23 07:01:38;;;;;;;31.08;22.08;;;;;;;11.88;96.38;100075.19;4954389;29;20039;-79
2023/04/23 07:04:05;;;;;;;32.53;22.10;;;;;;;11.89;96.74;100074.31;4938579;29;20048;-79
2023/04/23 07:06:33;;;;;;;33.08;22.83;;;;;;;11.91;96.62;100071.63;4936803;29;20051;-79
2023/04/23 07:09:00;;;;;;;29.50;21.33;;;;;;;11.89;96.68;100060.34;4953667;29;20044;-80
2023/04/23 07:11:28;;;;;;;34.60;23.30;;;;;;;12.07;96.79;100065.16;4953108;29;20046;-80
2023/04/23 07:13:56;;;;;;;28.98;20.77;;;;;;;12.49;95.14;100068.47;4937861;29;20043;-79
2023/04/23 07:16:24;;;;;;;29.48;21.02;;;;;;;12.94;92.47;100068.13;4952184;29;20035;-79
2023/04/23 07:18:54;;;;;;;28.88;21.05;;;;;;;13.38;90.26;100065.16;4952450;29;20036;-79
2023/04/23 07:21:20;;;;;;;28.48;20.98;;;;;;;13.65;89.25;100068.72;4936773;29;20109;-79
2023/04/23 07:23:47;;;;;;;29.13;21.40;;;;;;;13.90;88.76;100063.53;4925961;29;20044;-79
2023/04/23 07:26:15;;;;;;;29.13;21.25;;;;;;;13.78;87.11;100061.31;4939166;29;20050;-79
2023/04/23 07:28:41;;;;;;;28.45;22.08;;;;;;;14.07;86.70;100062.97;4937076;29;20043;-79
2023/04/23 07:31:07;;;;;;;33.72;20.75;;;;;;;14.44;85.42;100060.88;4936767;29;20054;-79
2023/04/23 07:33:34;;;;;;;30.25;21.52;;;;;;;14.77;81.23;100051.88;4936681;29;20040;-78
2023/04/23 07:36:01;;;;;;;33.75;21.27;;;;;;;14.77;80.84;100055.41;4936382;29;20074;-79
2023/04/23 07:38:27;;;;;;;33.08;23.73;;;;;;;15.05;80.29;100051.75;4936192;29;20068;-79
2023/04/23 07:40:53;;;;;;;27.90;20.00;;;;;;;15.78;78.39;100048.94;4920421;29;20046;-80
2023/04/23 07:43:20;;;;;;;27.88;19.73;;;;;;;16.44;75.84;100045.34;4936451;29;20039;-80
2023/04/23 07:45:47;;;;;;;23.02;18.58;;;;;;;17.13;74.24;100050.28;4936629;29;20039;-80
2023/04/23 07:48:13;;;;;;;24.30;19.05;;;;;;;17.34;69.48;100043.13;4936543;29;20054;-80
2023/04/23 07:50:40;;;;;;;24.65;18.88;;;;;;;17.30;71.64;100045.97;4920786;29;20036;-79
2023/04/23 07:53:06;;;;;;;22.75;17.65;;;;;;;17.29;68.16;100037.19;4936719;29;20039;-79
2023/04/23 07:55:33;;;;;;;20.85;17.58;;;;;;;17.65;66.73;100043.44;4920819;29;20138;-79
2023/04/23 07:57:59;;;;;;;22.98;18.13;;;;;;;18.28;64.65;100026.28;4920195;29;20058;-79
2023/04/23 08:00:26;;;;;;;25.02;19.42;;;;;;;18.59;62.04;100017.59;4919809;29;20044;-79
2023/04/23 08:02:53;;;;;;;21.45;17.08;;;;;;;19.09;61.03;100017.63;4920601;29;20040;-80
2023/04/23 08:05:20;;;;;;;22.40;17.48;;;;;;;19.27;59.42;100018.44;4920795;29;20054;-79
2023/04/23 08:07:46;;;;;;;18.67;15.40;;;;;;;19.70;58.55;100020.44;4920805;29;20387;-79
2023/04/23 08:10:13;;;;;;;18.52;16.30;;;;;;;20.18;55.53;100013.25;4922120;29;20043;-79
2023/04/23 08:12:39;;;;;;;20.27;16.08;;;;;;;20.54;54.53;100021.78;4937829;29;20051;-79
2023/04/23 08:15:06;;;;;;;19.13;15.85;;;;;;;21.09;52.03;100015.72;4938251;29;20115;-80
2023/04/23 08:17:33;;;;;;;20.17;17.25;;;;;;;21.45;50.43;100016.97;4937967;29;20550;-80
2023/04/23 08:20:00;;;;;;;21.48;17.98;;;;;;;21.74;49.69;100021.38;4937777;29;20051;-80
2023/04/23 08:22:26;;;;;;;26.58;17.27;;;;;;;21.62;48.10;100025.72;4937170;29;20459;-80
2023/04/23 08:24:52;;;;;;;17.90;15.52;;;;;;;21.62;47.07;100023.91;4936429;29;20146;-80
2023/04/23 08:27:19;;;;;;;19.45;15.77;;;;;;;22.16;47.08;100032.78;4936043;29;20142;-82
2023/04/23 08:29:46;;;;;;;20.10;16.83;;;;;;;22.37;45.12;100029.66;4935810;29;20043;-79
2023/04/23 08:32:13;;;;;;;19.23;15.40;;;;;;;22.21;45.56;100024.50;4935188;29;20043;-80
2023/04/23 08:34:39;;;;;;;21.02;17.25;;;;;;;22.25;43.38;100026.88;4936376;29;20040;-80
2023/04/23 08:37:06;;;;;;;18.30;15.32;;;;;;;21.81;44.03;100026.22;4935356;29;20040;-80
2023/04/23 08:39:34;;;;;;;19.25;17.25;;;;;;;21.61;44.47;100019.50;4919198;29;20043;-80
2023/04/23 08:42:17;;;;;;;16.80;14.98;;;;;;;21.55;42.39;100017.28;4935058;29;20142;-80
2023/04/23 08:44:46;;;;;;;16.17;14.10;;;;;;;21.89;43.23;100023.03;4936565;29;20091;-80
2023/04/23 08:47:17;;;;;;;15.00;13.02;;;;;;;22.67;41.54;100012.50;4919522;29;20043;-80
2023/04/23 08:49:47;;;;;;;17.38;14.43;;;;;;;22.89;41.02;100006.50;4935147;29;20036;-79
2023/04/23 08:52:23;;;;;;;16.02;14.15;;;;;;;23.40;39.91;99998.41;4935378;29;20046;-80
2023/04/23 08:54:53;;;;;;;15.63;13.93;;;;;;;24.35;39.57;100002.06;4935897;29;20126;-80
2023/04/23 08:57:20;;;;;;;17.35;14.45;;;;;;;25.21;38.58;100003.34;4920265;29;20526;-82
2023/04/23 08:59:47;;;;;;;18.92;14.75;;;;;;;25.68;37.59;99992.41;4952799;29;20055;-81
2023/04/23 09:02:16;;;;;;;16.58;14.82;;;;;;;25.69;35.39;99996.78;4937936;29;20467;-81
2023/04/23 09:04:46;;;;;;;16.23;14.63;;;;;;;25.77;35.25;99996.13;4924931;29;20053;-81
2023/04/23 09:07:16;;;;;;;16.92;15.05;;;;;;;25.35;35.67;99994.22;4941020;29;20075;-81
2023/04/23 09:09:43;;;;;;;14.23;12.70;;;;;;;26.16;35.87;99992.94;4941811;29;20048;-81
2023/04/23 09:12:10;;;;;;;11.43;10.23;;;;;;;26.56;31.58;99989.50;4945209;29;20044;-81
2023/04/23 09:14:36;;;;;;;8.82;8.10;;;;;;;26.74;32.48;99987.94;4928289;29;20048;-81
2023/04/23 09:17:04;;;;;;;10.93;9.82;;;;;;;26.72;31.01;99984.53;4945753;29;20044;-82
2023/04/23 09:19:30;;;;;;;11.68;10.48;;;;;;;26.02;31.24;99991.41;4946536;29;20103;-80
2023/04/23 09:21:59;;;;;;;9.70;8.85;;;;;;;26.12;32.36;99981.63;4960155;29;20047;-82
2023/04/23 09:24:26;;;;;;;10.65;9.60;;;;;;;26.35;31.37;99981.50;4955160;29;20043;-81
2023/04/23 09:26:53;;;;;;;12.32;11.07;;;;;;;26.90;31.18;99983.91;4940894;29;20047;-80
2023/04/23 09:29:23;;;;;;;11.77;10.68;;;;;;;27.43;30.19;99973.84;4926149;29;20051;-81
2023/04/23 09:31:52;;;;;;;11.82;10.63;;;;;;;27.60;30.28;99970.50;4942440;29;20149;-83
2023/04/23 09:34:20;;;;;;;10.55;9.55;;;;;;;27.67;29.81;99970.78;4954589;29;20047;-81
2023/04/23 09:36:50;;;;;;;11.32;10.15;;;;;;;28.05;28.41;99971.75;4942365;29;20043;-82
2023/04/23 09:39:21;;;;;;;10.52;9.52;;;;;;;28.71;27.95;99970.91;4941411;29;20449;-82
2023/04/23 09:41:47;;;;;;;12.63;11.25;;;;;;;28.79;27.97;99969.31;4941337;29;20122;-81
2023/04/23 09:44:21;;;;;;;10.75;9.82;;;;;;;28.67;27.44;99963.28;4957487;29;20126;-80
2023/04/23 09:46:47;;;;;;;8.48;7.68;;;;;;;28.88;27.22;99965.72;4941682;29;20475;-82
2023/04/23 09:49:15;;;;;;;9.02;8.23;;;;;;;29.05;26.60;99967.59;4941148;29;20039;-80
2023/04/23 09:51:50;;;;;;;9.43;8.63;;;;;;;29.40;26.03;99964.28;4925724;29;20051;-82
2023/04/23 09:54:24;;;;;;;9.07;8.20;;;;;;;29.64;25.46;99964.53;4925663;29;20039;-81
2023/04/23 09:56:55;;;;;;;7.72;7.03;;;;;;;29.86;25.46;99967.75;4941399;29;20098;-82
2023/04/23 09:59:32;;;;;;;8.18;7.47;;;;;;;30.03;25.81;99966.06;4925946;29;20039;-80
2023/04/23 10:02:03;;;;;;;9.15;8.25;;;;;;;29.93;25.18;99958.06;4942110;29;20042;-81
2023/04/23 10:04:30;;;;;;;10.15;9.25;;;;;;;30.06;25.41;99962.22;4943163;29;20130;-81
2023/04/23 10:07:03;;;;;;;9.18;8.27;;;;;;;30.51;25.20;99953.91;4959188;29;20047;-80
2023/04/23 10:09:30;;;;;;;8.68;7.88;;;;;;;30.95;24.82;99944.81;4959482;29;20053;-81
2023/04/23 10:12:01;;;;;;;8.73;7.70;;;;;;;30.66;24.47;99945.22;4943597;29;20212;-82
2023/04/23 10:14:28;;;;;;;7.72;7.13;;;;;;;30.88;24.80;99942.94;4941933;29;20058;-83
2023/04/23 10:17:01;;;;;;;9.43;8.43;;;;;;;30.87;24.31;99933.97;4941907;29;20047;-83
2023/04/23 10:19:28;;;;;;;9.05;8.23;;;;;;;30.09;25.48;99935.75;4924960;29;20050;-83
2023/04/23 10:22:06;;;;;;;9.07;8.35;;;;;;;30.76;24.62;99942.41;4941277;29;20137;-83
2023/04/23 10:24:35;;;;;;;8.27;7.47;;;;;;;29.97;25.64;99940.56;4956636;29;20047;-85
2023/04/23 10:27:04;;;;;;;9.27;8.45;;;;;;;28.34;26.78;99941.25;4941217;29;20039;-84
2023/04/23 10:29:34;;;;;;;8.55;7.75;;;;;;;27.10;28.76;99943.66;4940831;29;20072;-83
2023/04/23 10:32:06;;;;;;;8.10;7.38;;;;;;;28.67;27.15;99934.50;4940369;29;20057;-81
2023/04/23 10:34:33;;;;;;;7.90;7.20;;;;;;;30.08;25.68;99930.50;4956660;29;20058;-81
2023/04/23 10:37:02;;;;;;;8.25;7.53;;;;;;;31.22;24.30;99923.97;4941041;29;20046;-82
2023/04/23 10:39:32;;;;;;;7.68;7.07;;;;;;;30.85;24.36;99920.63;4940107;29;20046;-82
2023/04/23 10:41:59;;;;;;;8.90;6.97;;;;;;;31.49;23.92;99921.97;4940925;29;20058;-82
2023/04/23 10:44:38;;;;;;;13.05;11.82;;;;;;;31.78;23.25;99924.19;4941016;29;20046;-82
2023/04/23 10:47:06;;;;;;;8.45;7.55;;;;;;;32.07;22.94;99928.25;4927401;29;20378;-81
2023/04/23 10:49:34;;;;;;;6.85;6.25;;;;;;;32.83;22.27;99930.59;4940275;29;20047;-82
2023/04/23 10:52:14;;;;;;;6.40;5.88;;;;;;;32.08;23.26;99921.78;4940761;29;20040;-82
2023/04/23 10:54:48;;;;;;;6.65;6.05;;;;;;;31.94;23.37;99919.78;4941138;29;20047;-81
2023/04/23 10:57:15;;;;;;;6.90;6.28;;;;;;;30.66;24.18;99918.19;4940767;29;20039;-82
2023/04/23 10:59:53;;;;;;;6.38;5.88;;;;;;;28.72;26.32;99915.19;4940352;29;20046;-80
2023/04/23 11:02:20;;;;;;;6.80;6.13;;;;;;;26.68;28.67;99921.31;4924692;29;20070;-80
2023/04/23 11:04:55;;;;;;;6.57;6.05;;;;;;;24.84;30.68;99927.81;4940363;29;20046;-80
2023/04/23 11:07:32;;;;;;;6.72;6.00;;;;;;;23.52;32.20;99929.00;4956521;29;20046;-80
2023/04/23 11:10:01;;;;;;;5.50;5.00;;;;;;;22.90;32.91;99931.66;4924555;29;20039;-81
2023/04/23 11:12:29;;;;;;;5.72;5.22;;;;;;;22.93;33.91;99926.13;4939650;29;20035;-80
2023/04/23 11:15:16;;;;;;;6.10;5.10;;;;;;;22.62;33.69;99932.81;4957133;29;20062;-81
2023/04/23 11:17:46;;;;;;;6.85;6.15;;;;;;;21.92;35.02;99928.72;4956562;29;20052;-80